createdAt,value
2023-02-14T00:00:45.933Z,103439.81
2023-02-14T00:03:14.129Z,103442.03
2023-02-14T00:05:40.761Z,103441.31
2023-02-14T00:08:07.512Z,103438.28
2023-02-14T00:10:34.242Z,103440.41
2023-02-14T00:13:00.890Z,103444.72
2023-02-14T00:15:27.688Z,103440.25
2023-02-14T00:17:56.565Z,103439.63
2023-02-14T00:20:23.562Z,103433.50
2023-02-14T00:22:50.247Z,103439.81
2023-02-14T00:25:17.170Z,103440.25
2023-02-14T00:27:44.047Z,103436.16
2023-02-14T00:30:12.823Z,103433.66
2023-02-14T00:32:40.582Z,103430.16
2023-02-14T00:35:08.843Z,103433.25
2023-02-14T00:37:35.519Z,103432.31
2023-02-14T00:40:02.394Z,103435.19
2023-02-14T00:42:29.089Z,103430.84
2023-02-14T00:44:55.781Z,103428.34
2023-02-14T00:47:22.683Z,103438.13
2023-02-14T00:49:49.420Z,103442.09
2023-02-14T00:52:16.114Z,103436.06
2023-02-14T00:54:42.748Z,103429.91
2023-02-14T00:57:09.418Z,103434.34
2023-02-14T00:59:36.309Z,103433.44
2023-02-14T01:02:04.255Z,103422.16
2023-02-14T01:04:31.035Z,103422.63
2023-02-14T01:07:00.812Z,103421.25
2023-02-14T01:09:27.506Z,103421.94
2023-02-14T01:11:54.313Z,103411.38
2023-02-14T01:14:21.022Z,103418.63
2023-02-14T01:16:49.561Z,103415.19
2023-02-14T01:19:16.584Z,103408.97
2023-02-14T01:21:43.727Z,103407.16
2023-02-14T01:24:10.829Z,103410.69
2023-02-14T01:26:37.604Z,103409.03
2023-02-14T01:29:05.133Z,103402.56
2023-02-14T01:31:34.168Z,103401.00
2023-02-14T01:34:01.455Z,103398.25
2023-02-14T01:36:32.073Z,103401.16
2023-02-14T01:39:01.197Z,103393.94
2023-02-14T01:41:33.056Z,103400.88
2023-02-14T01:44:02.608Z,103391.00
2023-02-14T01:46:34.603Z,103395.91
2023-02-14T01:49:20.113Z,103391.44
2023-02-14T01:51:53.321Z,103391.69
2023-02-14T01:54:20.621Z,103399.69
2023-02-14T01:56:52.168Z,103393.59
2023-02-14T01:59:21.752Z,103394.53
2023-02-14T02:01:53.457Z,103397.75
2023-02-14T02:04:25.840Z,103394.38
2023-02-14T02:06:59.684Z,103388.25
2023-02-14T02:09:35.068Z,103392.78
2023-02-14T02:12:11.095Z,103393.63
2023-02-14T02:14:37.990Z,103397.25
2023-02-14T02:17:20.606Z,103395.53
2023-02-14T02:20:23.218Z,103400.72
2023-02-14T02:22:55.644Z,103394.53
2023-02-14T02:25:56.491Z,103399.78
2023-02-14T02:29:08.674Z,103390.97
2023-02-14T02:32:12.782Z,103398.72
2023-02-14T02:34:57.748Z,103408.06
2023-02-14T02:37:56.789Z,103394.84
2023-02-14T02:40:33.372Z,103400.47
2023-02-14T02:43:26.297Z,103397.81
2023-02-14T02:46:18.031Z,103401.44
2023-02-14T02:48:51.207Z,103396.88
2023-02-14T02:51:52.957Z,103402.41
2023-02-14T02:54:39.923Z,103393.94
2023-02-14T02:57:12.426Z,103388.84
2023-02-14T02:59:42.255Z,103381.72
2023-02-14T03:02:21.631Z,103386.25
2023-02-14T03:04:54.666Z,103386.38
2023-02-14T03:07:36.229Z,103386.72
2023-02-14T03:10:18.182Z,103385.03
2023-02-14T03:13:09.766Z,103386.97
2023-02-14T03:15:51.510Z,103390.69
2023-02-14T03:18:48.064Z,103395.91
2023-02-14T03:21:51.809Z,103394.22
2023-02-14T03:24:45.580Z,103387.16
2023-02-14T03:27:26.074Z,103388.53
2023-02-14T03:30:09.864Z,103396.50
2023-02-14T03:32:40.062Z,103390.66
2023-02-14T03:35:31.033Z,103380.88
2023-02-14T03:38:05.887Z,103381.03
2023-02-14T03:40:35.922Z,103383.53
2023-02-14T03:43:09.935Z,103390.88
2023-02-14T03:45:49.153Z,103382.72
2023-02-14T03:48:16.724Z,103391.38
2023-02-14T03:50:46.104Z,103393.84
2023-02-14T03:53:14.229Z,103387.72
2023-02-14T03:55:47.126Z,103386.31
2023-02-14T03:58:27.651Z,103382.53
2023-02-14T04:00:59.775Z,103385.72
2023-02-14T04:03:27.789Z,103381.94
2023-02-14T04:05:54.848Z,103378.69
2023-02-14T04:08:26.372Z,103385.75
2023-02-14T04:10:53.850Z,103381.94
2023-02-14T04:13:21.027Z,103380.38
2023-02-14T04:15:47.786Z,103377.97
2023-02-14T04:18:33.069Z,103378.81
2023-02-14T04:21:00.041Z,103381.16
2023-02-14T04:23:26.890Z,103383.53
2023-02-14T04:25:53.713Z,103381.00
2023-02-14T04:28:20.408Z,103385.75
2023-02-14T04:30:47.064Z,103369.81
2023-02-14T04:33:13.711Z,103375.31
2023-02-14T04:35:40.336Z,103381.63
2023-02-14T04:38:07.849Z,103375.53
2023-02-14T04:40:34.459Z,103371.84
2023-02-14T04:43:01.665Z,103360.06
2023-02-14T04:45:28.299Z,103369.13
2023-02-14T04:47:55.240Z,103361.31
2023-02-14T04:50:23.618Z,103356.88
2023-02-14T04:52:50.264Z,103357.88
2023-02-14T04:55:17.001Z,103363.56
2023-02-14T04:57:43.685Z,103364.25
2023-02-14T05:00:11.303Z,103369.53
2023-02-14T05:02:38.006Z,103372.31
2023-02-14T05:05:05.036Z,103365.97
2023-02-14T05:07:31.847Z,103365.06
2023-02-14T05:09:58.578Z,103361.25
2023-02-14T05:12:25.202Z,103360.00
2023-02-14T05:14:51.863Z,103357.44
2023-02-14T05:17:18.687Z,103358.38
2023-02-14T05:19:45.439Z,103354.78
2023-02-14T05:22:12.147Z,103344.19
2023-02-14T05:24:39.086Z,103360.22
2023-02-14T05:27:05.791Z,103354.00
2023-02-14T05:29:32.475Z,103353.03
2023-02-14T05:31:59.360Z,103343.47
2023-02-14T05:34:26.114Z,103343.09
2023-02-14T05:36:54.197Z,103345.91
2023-02-14T05:39:20.998Z,103345.09
2023-02-14T05:41:49.158Z,103352.09
2023-02-14T05:44:15.982Z,103340.59
2023-02-14T05:46:42.623Z,103341.94
2023-02-14T05:49:09.311Z,103331.84
2023-02-14T05:51:36.032Z,103336.75
2023-02-14T05:54:02.644Z,103338.94
2023-02-14T05:56:29.288Z,103343.84
2023-02-14T05:58:55.983Z,103344.06
2023-02-14T06:01:22.907Z,103339.53
2023-02-14T06:03:49.560Z,103342.91
2023-02-14T06:06:16.216Z,103343.00
2023-02-14T06:08:42.867Z,103344.94
2023-02-14T06:11:09.546Z,103348.56
2023-02-14T06:13:36.182Z,103341.53
2023-02-14T06:16:04.660Z,103356.38
2023-02-14T06:18:37.489Z,103351.53
2023-02-14T06:21:04.465Z,103353.50
2023-02-14T06:23:31.084Z,103351.88
2023-02-14T06:25:57.798Z,103355.59
2023-02-14T06:28:24.473Z,103353.91
2023-02-14T06:30:51.611Z,103353.47
2023-02-14T06:33:18.303Z,103350.81
2023-02-14T06:35:44.945Z,103351.75
2023-02-14T06:38:11.565Z,103348.16
2023-02-14T06:40:38.280Z,103348.72
2023-02-14T06:43:05.551Z,103356.81
2023-02-14T06:45:33.210Z,103347.09
2023-02-14T06:48:00.495Z,103352.63
2023-02-14T06:50:27.246Z,103354.66
2023-02-14T06:52:53.975Z,103353.81
2023-02-14T06:55:20.859Z,103342.97
2023-02-14T06:57:47.667Z,103344.91
2023-02-14T07:00:15.026Z,103353.81
2023-02-14T07:02:42.749Z,103345.13
2023-02-14T07:05:09.466Z,103344.25
2023-02-14T07:07:36.247Z,103339.88
2023-02-14T07:10:03.252Z,103347.75
2023-02-14T07:12:30.110Z,103340.44
2023-02-14T07:14:56.942Z,103340.34
2023-02-14T07:17:23.597Z,103346.16
2023-02-14T07:19:50.207Z,103340.91
2023-02-14T07:22:16.953Z,103338.50
2023-02-14T07:24:46.637Z,103342.16
2023-02-14T07:27:13.411Z,103345.53
2023-02-14T07:29:40.015Z,103343.50
2023-02-14T07:32:07.770Z,103343.78
2023-02-14T07:34:34.754Z,103345.72
2023-02-14T07:37:01.983Z,103346.66
2023-02-14T07:39:28.609Z,103345.06
2023-02-14T07:41:55.221Z,103339.94
2023-02-14T07:44:22.732Z,103341.16
2023-02-14T07:46:49.470Z,103335.13
2023-02-14T07:49:16.233Z,103340.63
2023-02-14T07:51:42.860Z,103333.19
2023-02-14T07:54:09.533Z,103333.66
2023-02-14T07:56:36.223Z,103337.34
2023-02-14T07:59:03.103Z,103336.69
2023-02-14T08:01:29.801Z,103339.31
2023-02-14T08:03:59.507Z,103341.84
2023-02-14T08:06:28.031Z,103333.88
2023-02-14T08:08:54.787Z,103336.44
2023-02-14T08:11:39.950Z,103340.13
2023-02-14T08:14:06.676Z,103338.16
2023-02-14T08:16:34.776Z,103343.44
2023-02-14T08:19:02.002Z,103349.34
2023-02-14T08:21:28.720Z,103340.28
2023-02-14T08:23:55.425Z,103343.19
2023-02-14T08:26:22.076Z,103353.84
2023-02-14T08:28:51.760Z,103348.75
2023-02-14T08:31:34.333Z,103354.19
2023-02-14T08:34:05.471Z,103354.94
2023-02-14T08:36:32.785Z,103362.00
2023-02-14T08:38:59.511Z,103365.84
2023-02-14T08:41:26.306Z,103366.31
2023-02-14T08:43:53.208Z,103361.81
2023-02-14T08:46:19.994Z,103374.13
2023-02-14T08:48:46.680Z,103367.38
2023-02-14T08:51:14.600Z,103358.66
2023-02-14T08:53:42.258Z,103364.94
2023-02-14T08:56:13.569Z,103364.22
2023-02-14T08:58:40.876Z,103360.16
2023-02-14T09:01:13.220Z,103377.41
2023-02-14T09:03:40.062Z,103378.19
2023-02-14T09:06:09.237Z,103375.53
2023-02-14T09:08:39.693Z,103373.81
2023-02-14T09:11:18.903Z,103373.72
2023-02-14T09:13:46.183Z,103363.69
2023-02-14T09:16:14.468Z,103377.59
2023-02-14T09:18:41.216Z,103361.63
2023-02-14T09:21:15.223Z,103367.91
2023-02-14T09:23:42.115Z,103368.47
2023-02-14T09:26:10.989Z,103362.06
2023-02-14T09:28:38.294Z,103371.03
2023-02-14T09:31:17.392Z,103371.28
2023-02-14T09:34:04.175Z,103367.56
2023-02-14T09:36:49.454Z,103369.50
2023-02-14T09:39:16.276Z,103362.69
2023-02-14T09:42:10.755Z,103373.09
2023-02-14T09:44:47.739Z,103378.47
2023-02-14T09:47:37.447Z,103371.69
2023-02-14T09:50:26.383Z,103380.09
2023-02-14T09:52:57.707Z,103378.75
2023-02-14T09:55:26.920Z,103376.44
2023-02-14T09:58:12.395Z,103379.22
2023-02-14T10:00:46.642Z,103382.53
2023-02-14T10:03:22.318Z,103393.66
2023-02-14T10:05:56.965Z,103387.19
2023-02-14T10:08:42.059Z,103385.22
2023-02-14T10:11:20.348Z,103386.97
2023-02-14T10:13:52.213Z,103388.00
2023-02-14T10:16:27.175Z,103394.38
2023-02-14T10:19:02.907Z,103386.63
2023-02-14T10:21:37.465Z,103379.22
2023-02-14T10:24:20.598Z,103373.41
2023-02-14T10:26:48.736Z,103373.47
2023-02-14T10:29:17.313Z,103367.69
2023-02-14T10:31:55.961Z,103361.28
2023-02-14T10:34:35.829Z,103363.44
2023-02-14T10:37:21.155Z,103361.56
2023-02-14T10:39:57.595Z,103356.44
2023-02-14T10:42:44.550Z,103362.34
2023-02-14T10:45:39.688Z,103365.06
2023-02-14T10:48:24.622Z,103368.75
2023-02-14T10:51:12.922Z,103359.47
2023-02-14T10:54:25.909Z,103362.09
2023-02-14T10:57:00.313Z,103362.31
2023-02-14T10:59:39.349Z,103363.41
2023-02-14T11:02:06.517Z,103361.66
2023-02-14T11:04:33.244Z,103350.31
2023-02-14T11:06:59.903Z,103351.25
2023-02-14T11:09:26.653Z,103345.97
2023-02-14T11:11:55.932Z,103357.16
2023-02-14T11:14:32.652Z,103345.94
2023-02-14T11:17:00.841Z,103339.78
2023-02-14T11:19:36.855Z,103346.06
2023-02-14T11:22:04.480Z,103347.91
2023-02-14T11:24:41.553Z,103346.25
2023-02-14T11:27:17.556Z,103346.13
2023-02-14T11:29:48.262Z,103343.22
2023-02-14T11:32:23.760Z,103344.19
2023-02-14T11:34:53.968Z,103342.47
2023-02-14T11:37:23.507Z,103338.94
2023-02-14T11:39:50.912Z,103331.34
2023-02-14T11:42:36.251Z,103343.41
2023-02-14T11:45:05.344Z,103341.78
2023-02-14T11:47:34.697Z,103341.28
2023-02-14T11:50:06.221Z,103342.44
2023-02-14T11:52:34.087Z,103335.03
2023-02-14T11:55:01.242Z,103331.53
2023-02-14T11:57:33.077Z,103328.38
2023-02-14T12:00:02.232Z,103320.53
2023-02-14T12:02:41.710Z,103318.88
2023-02-14T12:05:28.680Z,103322.22
2023-02-14T12:08:00.958Z,103320.56
2023-02-14T12:10:30.930Z,103310.84
2023-02-14T12:13:09.577Z,103311.94
2023-02-14T12:15:40.579Z,103305.75
2023-02-14T12:18:47.827Z,103310.56
2023-02-14T12:21:26.156Z,103306.66
2023-02-14T12:24:04.713Z,103306.97
2023-02-14T12:26:55.484Z,103286.16
2023-02-14T12:29:40.324Z,103283.41
2023-02-14T12:32:27.561Z,103288.13
2023-02-14T12:35:19.108Z,103275.00
2023-02-14T12:37:56.002Z,103279.50
2023-02-14T12:41:00.949Z,103268.09
2023-02-14T12:43:50.944Z,103264.88
2023-02-14T12:46:21.246Z,103260.56
2023-02-14T12:49:00.316Z,103264.31
2023-02-14T12:51:54.509Z,103253.63
2023-02-14T12:54:39.967Z,103250.84
2023-02-14T12:57:27.402Z,103256.28
2023-02-14T13:00:09.537Z,103250.22
2023-02-14T13:03:01.581Z,103249.94
2023-02-14T13:05:41.941Z,103246.97
2023-02-14T13:08:27.609Z,103242.91
2023-02-14T13:11:07.564Z,103241.34
2023-02-14T13:14:05.048Z,103246.75
2023-02-14T13:17:09.297Z,103235.56
2023-02-14T13:20:01.764Z,103240.34
2023-02-14T13:22:29.770Z,103243.66
2023-02-14T13:24:59.909Z,103234.13
2023-02-14T13:27:31.527Z,103236.88
2023-02-14T13:30:01.266Z,103228.91
2023-02-14T13:32:32.206Z,103229.91
2023-02-14T13:34:59.308Z,103228.94
2023-02-14T13:37:27.470Z,103226.88
2023-02-14T13:39:56.734Z,103224.38
2023-02-14T13:42:46.722Z,103218.25
2023-02-14T13:45:37.576Z,103221.69
2023-02-14T13:48:12.010Z,103219.94
2023-02-14T13:50:41.484Z,103213.75
2023-02-14T13:53:12.751Z,103215.56
2023-02-14T13:55:44.069Z,103222.84
2023-02-14T13:58:24.297Z,103202.03
2023-02-14T14:00:52.927Z,103212.63
2023-02-14T14:03:28.932Z,103212.59
2023-02-14T14:06:10.868Z,103219.97
2023-02-14T14:08:39.601Z,103219.81
2023-02-14T14:11:12.652Z,103213.84
2023-02-14T14:13:42.800Z,103206.75
2023-02-14T14:16:27.763Z,103207.56
2023-02-14T14:19:04.911Z,103202.28
2023-02-14T14:21:35.461Z,103199.41
2023-02-14T14:24:24.306Z,103196.97
2023-02-14T14:27:18.570Z,103199.44
2023-02-14T14:29:54.165Z,103196.56
2023-02-14T14:32:30.620Z,103187.31
2023-02-14T14:35:06.636Z,103193.63
2023-02-14T14:37:35.577Z,103194.97
2023-02-14T14:40:08.282Z,103193.81
2023-02-14T14:42:37.444Z,103185.88
2023-02-14T14:45:17.273Z,103192.88
2023-02-14T14:47:45.540Z,103189.09
2023-02-14T14:50:29.154Z,103191.06
2023-02-14T14:52:58.153Z,103186.88
2023-02-14T14:55:27.322Z,103193.88
2023-02-14T14:57:59.612Z,103190.03
2023-02-14T15:00:30.836Z,103191.06
2023-02-14T15:03:01.407Z,103185.03
2023-02-14T15:05:29.915Z,103175.16
2023-02-14T15:07:58.428Z,103181.94
2023-02-14T15:10:28.517Z,103185.78
2023-02-14T15:13:16.286Z,103173.47
2023-02-14T15:15:48.881Z,103176.63
2023-02-14T15:18:15.690Z,103175.72
2023-02-14T15:20:42.853Z,103170.59
2023-02-14T15:23:18.115Z,103174.75
2023-02-14T15:25:46.428Z,103166.63
2023-02-14T15:28:17.516Z,103171.00
2023-02-14T15:30:44.925Z,103166.91
2023-02-14T15:33:11.906Z,103160.06
2023-02-14T15:35:42.490Z,103159.56
2023-02-14T15:38:10.937Z,103156.97
2023-02-14T15:40:38.967Z,103149.13
2023-02-14T15:43:17.827Z,103146.34
2023-02-14T15:45:50.291Z,103149.31
2023-02-14T15:48:19.294Z,103148.53
2023-02-14T15:50:59.074Z,103145.88
2023-02-14T15:53:31.982Z,103149.38
2023-02-14T15:56:11.009Z,103136.84
2023-02-14T15:58:38.774Z,103136.03
2023-02-14T16:01:06.556Z,103137.69
2023-02-14T16:03:37.152Z,103131.63
2023-02-14T16:06:04.980Z,103134.38
2023-02-14T16:08:40.136Z,103138.47
2023-02-14T16:11:16.122Z,103138.34
2023-02-14T16:13:44.999Z,103131.19
2023-02-14T16:16:13.842Z,103128.50
2023-02-14T16:18:43.557Z,103131.28
2023-02-14T16:21:19.727Z,103127.53
2023-02-14T16:23:48.263Z,103126.06
2023-02-14T16:26:15.024Z,103125.97
2023-02-14T16:28:43.528Z,103130.22
2023-02-14T16:31:15.772Z,103126.66
2023-02-14T16:33:42.763Z,103119.72
2023-02-14T16:36:17.992Z,103125.22
2023-02-14T16:38:45.756Z,103122.22
2023-02-14T16:41:29.035Z,103116.31
2023-02-14T16:43:56.522Z,103120.06
2023-02-14T16:46:25.834Z,103119.06
2023-02-14T16:48:53.016Z,103136.28
2023-02-14T16:51:22.077Z,103128.63
2023-02-14T16:53:49.040Z,103122.34
2023-02-14T16:56:21.384Z,103131.22
2023-02-14T16:58:48.304Z,103125.72
2023-02-14T17:01:15.022Z,103125.00
2023-02-14T17:03:42.968Z,103131.25
2023-02-14T17:06:11.563Z,103125.72
2023-02-14T17:08:39.977Z,103125.59
2023-02-14T17:11:07.180Z,103130.81
2023-02-14T17:13:35.742Z,103130.13
2023-02-14T17:16:04.446Z,103127.34
2023-02-14T17:18:31.751Z,103131.66
2023-02-14T17:20:59.418Z,103132.47
2023-02-14T17:23:26.778Z,103134.63
2023-02-14T17:25:54.066Z,103129.72
2023-02-14T17:28:21.968Z,103132.41
2023-02-14T17:30:48.932Z,103122.78
2023-02-14T17:33:15.960Z,103130.75
2023-02-14T17:35:42.827Z,103131.66
2023-02-14T17:38:09.950Z,103129.28
2023-02-14T17:40:36.906Z,103121.47
2023-02-14T17:43:04.036Z,103129.66
2023-02-14T17:45:30.948Z,103121.88
2023-02-14T17:47:57.740Z,103116.56
2023-02-14T17:50:24.501Z,103120.09
2023-02-14T17:52:55.560Z,103124.59
2023-02-14T17:55:22.904Z,103118.66
2023-02-14T17:57:52.638Z,103109.53
2023-02-14T18:00:24.124Z,103114.91
2023-02-14T18:02:50.844Z,103107.88
2023-02-14T18:05:17.592Z,103099.09
2023-02-14T18:07:44.562Z,103103.19
2023-02-14T18:10:14.472Z,103099.59
2023-02-14T18:12:41.350Z,103100.44
2023-02-14T18:15:08.428Z,103102.31
2023-02-14T18:17:35.120Z,103105.81
2023-02-14T18:20:01.860Z,103094.25
2023-02-14T18:22:28.813Z,103087.66
2023-02-14T18:24:58.859Z,103080.63
2023-02-14T18:27:26.204Z,103089.91
2023-02-14T18:29:53.305Z,103093.00
2023-02-14T18:32:20.334Z,103086.00
2023-02-14T18:34:47.195Z,103078.66
2023-02-14T18:37:14.322Z,103084.13
2023-02-14T18:39:41.148Z,103074.69
2023-02-14T18:42:07.789Z,103065.91
2023-02-14T18:44:34.537Z,103058.97
2023-02-14T18:47:02.151Z,103059.53
2023-02-14T18:49:28.975Z,103062.44
2023-02-14T18:51:57.411Z,103050.25
2023-02-14T18:54:24.478Z,103044.84
2023-02-14T18:56:51.296Z,103051.34
2023-02-14T18:59:18.235Z,103048.69
2023-02-14T19:01:45.552Z,103040.91
2023-02-14T19:04:12.919Z,103036.50
2023-02-14T19:06:41.176Z,103040.84
2023-02-14T19:09:10.972Z,103045.41
2023-02-14T19:11:37.788Z,103029.19
2023-02-14T19:14:09.960Z,103029.34
2023-02-14T19:16:42.186Z,103036.44
2023-02-14T19:19:11.361Z,103036.72
2023-02-14T19:21:38.231Z,103034.16
2023-02-14T19:24:07.187Z,103030.75
2023-02-14T19:26:37.794Z,103035.34
2023-02-14T19:29:07.627Z,103028.28
2023-02-14T19:31:37.574Z,103036.34
2023-02-14T19:34:06.405Z,103038.06
2023-02-14T19:36:36.380Z,103035.47
2023-02-14T19:39:03.929Z,103029.22
2023-02-14T19:41:34.481Z,103031.03
2023-02-14T19:44:02.638Z,103033.59
2023-02-14T19:46:29.596Z,103036.09
2023-02-14T19:48:57.645Z,103038.81
2023-02-14T19:51:26.596Z,103035.31
2023-02-14T19:53:53.855Z,103033.47
2023-02-14T19:56:25.978Z,103028.09
2023-02-14T19:58:53.101Z,103028.84
2023-02-14T20:01:43.078Z,103026.31
2023-02-14T20:04:15.303Z,103026.28
2023-02-14T20:06:43.244Z,103021.59
2023-02-14T20:09:10.077Z,103020.00
2023-02-14T20:11:46.801Z,103011.53
2023-02-14T20:14:14.337Z,103018.81
2023-02-14T20:16:41.305Z,103011.63
2023-02-14T20:19:12.902Z,103011.69
2023-02-14T20:21:41.903Z,103009.06
2023-02-14T20:24:09.232Z,102999.00
2023-02-14T20:26:37.375Z,103001.97
2023-02-14T20:29:06.162Z,103010.09
2023-02-14T20:31:34.232Z,103005.84
2023-02-14T20:34:01.565Z,103001.22
2023-02-14T20:36:28.735Z,103001.16
2023-02-14T20:39:00.024Z,102992.94
2023-02-14T20:41:27.866Z,103000.25
2023-02-14T20:43:55.239Z,102993.97
2023-02-14T20:46:22.537Z,103001.22
2023-02-14T20:48:51.089Z,102997.72
2023-02-14T20:51:19.997Z,102988.09
2023-02-14T20:53:47.228Z,102988.31
2023-02-14T20:56:14.716Z,102993.84
2023-02-14T20:58:41.962Z,102990.13
2023-02-14T21:01:17.275Z,102988.72
2023-02-14T21:03:50.824Z,102982.03
2023-02-14T21:06:20.618Z,102976.88
2023-02-14T21:08:47.665Z,102979.59
2023-02-14T21:11:16.449Z,102980.53
2023-02-14T21:13:43.356Z,102977.91
2023-02-14T21:16:12.495Z,102980.63
2023-02-14T21:18:39.226Z,102969.41
2023-02-14T21:21:14.539Z,102960.91
2023-02-14T21:23:42.233Z,102968.06
2023-02-14T21:26:09.672Z,102969.97
2023-02-14T21:28:36.340Z,102969.13
2023-02-14T21:31:08.256Z,102966.22
2023-02-14T21:33:35.862Z,102958.25
2023-02-14T21:36:13.796Z,102965.19
2023-02-14T21:38:40.886Z,102954.22
2023-02-14T21:41:10.326Z,102950.78
2023-02-14T21:43:39.132Z,102951.75
2023-02-14T21:46:07.478Z,102948.09
2023-02-14T21:48:53.925Z,102952.41
2023-02-14T21:51:20.939Z,102954.88
2023-02-14T21:53:48.112Z,102947.72
2023-02-14T21:56:18.080Z,102949.41
2023-02-14T21:58:44.840Z,102941.28
2023-02-14T22:01:22.557Z,102941.22
2023-02-14T22:03:49.371Z,102945.41
2023-02-14T22:06:16.329Z,102946.03
2023-02-14T22:08:43.125Z,102943.31
2023-02-14T22:11:15.516Z,102943.13
2023-02-14T22:13:42.559Z,102957.06
2023-02-14T22:16:15.214Z,102946.47
2023-02-14T22:18:42.325Z,102946.31
2023-02-14T22:21:14.383Z,102950.41
2023-02-14T22:23:41.568Z,102939.72
2023-02-14T22:26:18.525Z,102940.56
2023-02-14T22:28:47.256Z,102938.66
2023-02-14T22:31:15.393Z,102932.34
2023-02-14T22:33:42.534Z,102933.09
2023-02-14T22:36:09.531Z,102925.03
2023-02-14T22:38:36.841Z,102918.63
2023-02-14T22:41:21.868Z,102915.97
2023-02-14T22:43:49.251Z,102913.28
2023-02-14T22:46:27.475Z,102913.19
2023-02-14T22:48:55.116Z,102915.72
2023-02-14T22:51:26.169Z,102901.44
2023-02-14T22:53:55.234Z,102905.88
2023-02-14T22:56:24.273Z,102908.44
2023-02-14T22:58:59.066Z,102904.75
2023-02-14T23:01:26.028Z,102899.28
2023-02-14T23:03:55.333Z,102901.88
2023-02-14T23:06:23.281Z,102904.41
2023-02-14T23:08:50.010Z,102900.84
2023-02-14T23:11:18.826Z,102905.06
2023-02-14T23:14:04.747Z,102902.22
2023-02-14T23:16:49.982Z,102908.28
2023-02-14T23:19:40.739Z,102900.25
2023-02-14T23:22:20.581Z,102896.50
2023-02-14T23:24:48.989Z,102893.00
2023-02-14T23:27:17.621Z,102899.97
2023-02-14T23:29:44.265Z,102899.94
2023-02-14T23:32:10.967Z,102895.44
2023-02-14T23:34:41.324Z,102893.50
2023-02-14T23:37:08.641Z,102893.44
2023-02-14T23:39:38.298Z,102895.03
2023-02-14T23:42:13.543Z,102892.38
2023-02-14T23:44:40.568Z,102895.84
2023-02-14T23:47:08.902Z,102899.22
2023-02-14T23:49:37.214Z,102888.53
2023-02-14T23:52:06.605Z,102892.00
2023-02-14T23:54:33.821Z,102887.50
2023-02-14T23:57:00.625Z,102881.28
2023-02-14T23:59:27.440Z,102886.56
